Terminal Aerodrome Forecast
Issued by NWS New Orleans/Baton Rouge, LA

Home | Current Version | Previous Version | Text Only | Print | Product List | Glossary On
Versions: 1 2 3 4 5 6 7 8 9 10 11 12 13 14 15 16 17
000
FTUS44 KLIX 181100
TAFBTR
TAF
KBTR 181120Z 1812/1912 00000KT P6SM BKN080
      TEMPO 1812/1814 4SM BR
     FM181400 00000KT P6SM BKN015
     FM181700 VRB03KT P6SM BKN030
     FM190300 00000KT P6SM BKN120
     FM190800 00000KT 4SM BR SCT005=

USA.gov is the U.S. government's official web portal to all federal, state and local government web resources and services.